createdAt,value
2024-01-15T00:00:19.239Z,99042.81
2024-01-15T00:02:46.107Z,99051.56
2024-01-15T00:05:12.858Z,99052.53
2024-01-15T00:07:39.590Z,99043.09
2024-01-15T00:10:07.130Z,99054.44
2024-01-15T00:12:34.050Z,99027.81
2024-01-15T00:15:00.910Z,99033.22
2024-01-15T00:17:28.458Z,99034.03
2024-01-15T00:19:55.378Z,99019.25
2024-01-15T00:22:22.177Z,99016.50
2024-01-15T00:24:48.961Z,99009.41
2024-01-15T00:27:15.696Z,99002.88
2024-01-15T00:29:42.773Z,99003.09
2024-01-15T00:32:09.562Z,98996.31
2024-01-15T00:34:36.421Z,98987.50
2024-01-15T00:37:04.125Z,98991.72
2024-01-15T00:39:30.869Z,98997.75
2024-01-15T00:41:57.646Z,98987.66
2024-01-15T00:44:24.615Z,98984.06
2024-01-15T00:46:51.503Z,98981.19
2024-01-15T00:49:18.415Z,98974.69
2024-01-15T00:51:45.418Z,98972.09
2024-01-15T00:54:12.272Z,98965.28
2024-01-15T00:56:39.052Z,98975.56
2024-01-15T00:59:05.867Z,98966.88
2024-01-15T01:01:33.334Z,98956.22
2024-01-15T01:04:00.242Z,98957.31
2024-01-15T01:06:27.130Z,98950.47
2024-01-15T01:08:53.856Z,98945.09
2024-01-15T01:11:20.577Z,98944.44
2024-01-15T01:13:47.266Z,98949.44
2024-01-15T01:16:13.955Z,98948.22
2024-01-15T01:18:40.885Z,98952.56
2024-01-15T01:21:07.910Z,98951.44
2024-01-15T01:23:34.693Z,98955.78
2024-01-15T01:26:01.406Z,98952.09
2024-01-15T01:28:28.985Z,98952.09
2024-01-15T01:30:55.771Z,98950.56
2024-01-15T01:33:22.715Z,98961.59
2024-01-15T01:35:49.693Z,98953.38
2024-01-15T01:38:16.835Z,98954.00
2024-01-15T01:40:43.563Z,98954.88
2024-01-15T01:43:10.801Z,98951.44
2024-01-15T01:45:37.927Z,98951.50
2024-01-15T01:48:05.572Z,98953.91
2024-01-15T01:50:33.278Z,98951.16
2024-01-15T01:53:01.135Z,98958.66
2024-01-15T01:55:29.106Z,98953.56
2024-01-15T01:57:56.437Z,98957.97
2024-01-15T02:00:23.772Z,98962.19
2024-01-15T02:02:50.740Z,98955.34
2024-01-15T02:05:19.985Z,98954.19
2024-01-15T02:07:46.733Z,98948.28
2024-01-15T02:10:13.510Z,98946.59
2024-01-15T02:12:40.517Z,98936.13
2024-01-15T02:15:07.636Z,98950.47
2024-01-15T02:17:34.397Z,98942.38
2024-01-15T02:20:01.170Z,98939.16
2024-01-15T02:22:27.922Z,98940.31
2024-01-15T02:24:54.845Z,98946.22
2024-01-15T02:27:21.924Z,98934.97
2024-01-15T02:29:49.198Z,98926.78
2024-01-15T02:32:15.904Z,98926.78
2024-01-15T02:34:42.738Z,98933.53
2024-01-15T02:37:09.533Z,98934.66
2024-01-15T02:39:36.344Z,98927.66
2024-01-15T02:42:03.085Z,98916.31
2024-01-15T02:44:29.789Z,98925.88
2024-01-15T02:46:56.529Z,98925.88
2024-01-15T02:49:23.595Z,98927.13
2024-01-15T02:51:50.580Z,98923.00
2024-01-15T02:54:17.497Z,98916.66
2024-01-15T02:56:44.253Z,98916.66
2024-01-15T02:59:10.985Z,98915.72
2024-01-15T03:01:37.783Z,98917.88
2024-01-15T03:04:04.729Z,98890.31
2024-01-15T03:06:31.602Z,98905.00
2024-01-15T03:08:58.317Z,98918.91
2024-01-15T03:11:25.012Z,98916.75
2024-01-15T03:13:51.759Z,98909.84
2024-01-15T03:16:20.904Z,98893.31
2024-01-15T03:18:48.305Z,98889.56
2024-01-15T03:21:15.126Z,98897.16
2024-01-15T03:23:41.885Z,98900.81
2024-01-15T03:26:08.590Z,98906.19
2024-01-15T03:28:35.322Z,98900.25
2024-01-15T03:31:02.144Z,98899.53
2024-01-15T03:33:29.389Z,98892.81
2024-01-15T03:35:56.240Z,98891.09
2024-01-15T03:38:24.687Z,98892.88
2024-01-15T03:40:51.477Z,98897.84
2024-01-15T03:43:18.220Z,98895.41
2024-01-15T03:45:45.020Z,98889.19
2024-01-15T03:48:11.876Z,98882.50
2024-01-15T03:50:38.621Z,98890.97
2024-01-15T03:53:05.316Z,98865.75
2024-01-15T03:55:32.034Z,98864.50
2024-01-15T03:57:58.756Z,98868.94
2024-01-15T04:00:25.814Z,98871.16
2024-01-15T04:02:52.586Z,98872.88
2024-01-15T04:05:19.301Z,98864.69
2024-01-15T04:07:46.042Z,98873.31
2024-01-15T04:10:12.767Z,98862.78
2024-01-15T04:12:39.507Z,98855.44
2024-01-15T04:15:06.510Z,98856.78
2024-01-15T04:17:33.317Z,98861.16
2024-01-15T04:20:00.102Z,98851.00
2024-01-15T04:22:28.261Z,98856.03
2024-01-15T04:24:55.021Z,98862.16
2024-01-15T04:27:21.805Z,98848.94
2024-01-15T04:29:48.653Z,98854.44
2024-01-15T04:32:15.392Z,98842.84
2024-01-15T04:34:42.281Z,98859.16
2024-01-15T04:37:09.015Z,98851.09
2024-01-15T04:39:35.777Z,98860.91
2024-01-15T04:42:02.612Z,98861.16
2024-01-15T04:44:29.793Z,98864.41
2024-01-15T04:46:56.541Z,98849.41
2024-01-15T04:49:23.493Z,98837.28
2024-01-15T04:51:50.392Z,98822.69
2024-01-15T04:54:20.018Z,98834.19
2024-01-15T04:56:46.749Z,98816.81
2024-01-15T04:59:14.666Z,98845.28
2024-01-15T05:01:41.817Z,98844.56
2024-01-15T05:04:08.663Z,98844.91
2024-01-15T05:06:35.502Z,98831.69
2024-01-15T05:09:02.237Z,98833.44
2024-01-15T05:11:28.930Z,98829.97
2024-01-15T05:13:55.630Z,98830.13
2024-01-15T05:16:22.444Z,98836.13
2024-01-15T05:18:49.380Z,98827.31
2024-01-15T05:21:16.398Z,98818.19
2024-01-15T05:23:43.166Z,98825.34
2024-01-15T05:26:10.340Z,98827.13
2024-01-15T05:28:37.160Z,98814.69
2024-01-15T05:31:04.490Z,98828.88
2024-01-15T05:33:31.346Z,98815.72
2024-01-15T05:35:59.812Z,98823.44
2024-01-15T05:38:26.520Z,98816.53
2024-01-15T05:40:53.217Z,98815.78
2024-01-15T05:43:19.921Z,98812.88
2024-01-15T05:45:46.782Z,98801.63
2024-01-15T05:48:14.082Z,98805.28
2024-01-15T05:50:40.878Z,98806.13
2024-01-15T05:53:07.610Z,98800.81
2024-01-15T05:55:34.320Z,98809.44
2024-01-15T05:58:01.184Z,98817.16
2024-01-15T06:00:28.006Z,98813.50
2024-01-15T06:02:54.744Z,98820.63
2024-01-15T06:05:21.498Z,98807.56
2024-01-15T06:07:49.135Z,98813.09
2024-01-15T06:10:15.906Z,98815.63
2024-01-15T06:12:46.964Z,98806.84
2024-01-15T06:15:14.369Z,98802.16
2024-01-15T06:17:41.287Z,98816.63
2024-01-15T06:20:08.684Z,98817.91
2024-01-15T06:22:35.400Z,98816.47
2024-01-15T06:25:02.239Z,98815.16
2024-01-15T06:27:29.068Z,98812.13
2024-01-15T06:29:57.401Z,98809.84
2024-01-15T06:32:24.237Z,98814.19
2024-01-15T06:34:51.105Z,98810.91
2024-01-15T06:37:20.179Z,98818.66
2024-01-15T06:39:47.602Z,98806.72
2024-01-15T06:42:14.411Z,98804.88
2024-01-15T06:44:41.217Z,98813.94
2024-01-15T06:47:07.937Z,98803.84
2024-01-15T06:49:34.736Z,98816.16
2024-01-15T06:52:02.097Z,98811.00
2024-01-15T06:54:28.874Z,98807.84
2024-01-15T06:56:55.616Z,98813.91
2024-01-15T06:59:22.471Z,98814.47
2024-01-15T07:01:49.718Z,98815.84
2024-01-15T07:04:16.550Z,98824.66
2024-01-15T07:06:43.303Z,98824.38
2024-01-15T07:09:10.476Z,98820.16
2024-01-15T07:11:37.221Z,98818.47
2024-01-15T07:14:03.968Z,98819.91
2024-01-15T07:16:37.235Z,98830.13
2024-01-15T07:19:05.767Z,98844.41
2024-01-15T07:21:32.871Z,98831.16
2024-01-15T07:23:59.679Z,98857.50
2024-01-15T07:26:26.740Z,98860.69
2024-01-15T07:28:54.056Z,98861.25
2024-01-15T07:31:20.922Z,98870.56
2024-01-15T07:33:48.162Z,98867.97
2024-01-15T07:36:16.215Z,98862.38
2024-01-15T07:38:42.987Z,98875.25
2024-01-15T07:41:09.723Z,98881.94
2024-01-15T07:43:36.434Z,98875.28
2024-01-15T07:46:04.043Z,98868.97
2024-01-15T07:48:31.354Z,98864.19
2024-01-15T07:50:58.220Z,98873.84
2024-01-15T07:53:25.142Z,98865.84
2024-01-15T07:55:51.843Z,98861.84
2024-01-15T07:58:18.614Z,98876.09
2024-01-15T08:00:45.998Z,98881.06
2024-01-15T08:03:14.014Z,98890.34
2024-01-15T08:05:41.091Z,98876.59
2024-01-15T08:08:08.179Z,98882.50
2024-01-15T08:10:34.961Z,98884.97
2024-01-15T08:13:01.995Z,98883.91
2024-01-15T08:15:31.439Z,98875.00
2024-01-15T08:17:58.913Z,98890.16
2024-01-15T08:20:26.993Z,98892.75
2024-01-15T08:22:54.045Z,98881.09
2024-01-15T08:25:20.768Z,98874.88
2024-01-15T08:27:47.554Z,98881.84
2024-01-15T08:30:14.806Z,98868.47
2024-01-15T08:32:44.687Z,98872.72
2024-01-15T08:35:12.391Z,98869.88
2024-01-15T08:37:40.002Z,98882.16
2024-01-15T08:40:07.051Z,98890.94
2024-01-15T08:42:34.005Z,98901.28
2024-01-15T08:45:00.922Z,98890.75
2024-01-15T08:47:27.790Z,98897.59
2024-01-15T08:49:54.674Z,98899.22
2024-01-15T08:52:21.622Z,98895.41
2024-01-15T08:54:48.567Z,98912.97
2024-01-15T08:57:15.463Z,98910.22
2024-01-15T08:59:42.703Z,98900.88
2024-01-15T09:02:09.671Z,98917.72
2024-01-15T09:04:36.508Z,98929.84
2024-01-15T09:07:03.592Z,98915.72
2024-01-15T09:09:30.459Z,98911.00
2024-01-15T09:11:57.474Z,98899.31
2024-01-15T09:14:33.381Z,98914.75
2024-01-15T09:17:05.636Z,98911.00
2024-01-15T09:19:32.664Z,98927.44
2024-01-15T09:21:59.979Z,98917.75
2024-01-15T09:24:28.244Z,98903.19
2024-01-15T09:26:55.876Z,98912.34
2024-01-15T09:29:25.207Z,98920.38
2024-01-15T09:31:52.632Z,98923.97
2024-01-15T09:34:19.996Z,98929.25
2024-01-15T09:36:47.136Z,98928.41
2024-01-15T09:39:14.056Z,98932.13
2024-01-15T09:41:40.913Z,98943.28
2024-01-15T09:44:09.099Z,98928.84
2024-01-15T09:46:39.271Z,98938.44
2024-01-15T09:49:06.816Z,98928.41
2024-01-15T09:51:34.397Z,98925.72
2024-01-15T09:54:01.280Z,98936.53
2024-01-15T09:56:29.126Z,98925.00
2024-01-15T09:58:56.196Z,98934.91
2024-01-15T10:01:23.641Z,98924.13
2024-01-15T10:03:51.574Z,98926.81
2024-01-15T10:06:22.343Z,98929.00
2024-01-15T10:08:51.746Z,98921.00
2024-01-15T10:11:18.521Z,98918.69
2024-01-15T10:13:46.594Z,98919.91
2024-01-15T10:16:14.060Z,98913.19
2024-01-15T10:18:41.264Z,98917.09
2024-01-15T10:21:09.332Z,98908.84
2024-01-15T10:23:37.399Z,98913.56
2024-01-15T10:26:07.142Z,98917.59
2024-01-15T10:28:33.880Z,98912.28
2024-01-15T10:31:01.907Z,98919.28
2024-01-15T10:33:29.073Z,98900.13
2024-01-15T10:35:57.327Z,98908.50
2024-01-15T10:38:25.003Z,98919.78
2024-01-15T10:40:58.475Z,98907.22
2024-01-15T10:43:28.917Z,98914.91
2024-01-15T10:45:56.613Z,98907.72
2024-01-15T10:48:24.750Z,98912.94
2024-01-15T10:50:51.526Z,98905.34
2024-01-15T10:53:18.729Z,98908.84
2024-01-15T10:55:46.245Z,98902.31
2024-01-15T10:58:13.901Z,98903.06
2024-01-15T11:00:40.787Z,98901.09
2024-01-15T11:03:08.009Z,98907.34
2024-01-15T11:05:39.950Z,98904.78
2024-01-15T11:08:10.228Z,98903.53
2024-01-15T11:10:47.686Z,98902.84
2024-01-15T11:13:40.708Z,98906.81
2024-01-15T11:16:08.858Z,98910.06
2024-01-15T11:18:41.619Z,98922.66
2024-01-15T11:21:18.802Z,98912.81
2024-01-15T11:24:00.105Z,98919.13
2024-01-15T11:26:36.195Z,98904.97
2024-01-15T11:29:11.264Z,98921.78
2024-01-15T11:31:41.292Z,98936.03
2024-01-15T11:34:09.605Z,98925.81
2024-01-15T11:36:54.776Z,98920.94
2024-01-15T11:39:33.892Z,98922.28
2024-01-15T11:42:04.629Z,98920.88
2024-01-15T11:44:31.907Z,98933.72
2024-01-15T11:47:04.270Z,98927.94
2024-01-15T11:49:50.950Z,98925.41
2024-01-15T11:52:25.037Z,98933.22
2024-01-15T11:55:13.652Z,98922.88
2024-01-15T11:57:47.621Z,98923.63
2024-01-15T12:00:15.614Z,98936.00
2024-01-15T12:02:43.372Z,98936.78
2024-01-15T12:05:13.640Z,98939.13
2024-01-15T12:07:44.771Z,98935.16
2024-01-15T12:10:19.940Z,98926.09
2024-01-15T12:13:13.248Z,98950.56
2024-01-15T12:15:43.516Z,98931.00
2024-01-15T12:18:11.942Z,98944.16
2024-01-15T12:20:39.184Z,98946.03
2024-01-15T12:23:08.791Z,98960.47
2024-01-15T12:25:36.107Z,98939.56
2024-01-15T12:28:03.424Z,98940.38
2024-01-15T12:30:33.223Z,98948.97
2024-01-15T12:33:05.255Z,98939.88
2024-01-15T12:35:32.338Z,98947.69
2024-01-15T12:38:02.025Z,98944.41
2024-01-15T12:40:28.826Z,98945.84
2024-01-15T12:42:56.129Z,98933.75
2024-01-15T12:45:23.026Z,98944.16
2024-01-15T12:47:50.079Z,98963.72
2024-01-15T12:50:20.044Z,98949.56
2024-01-15T12:52:48.026Z,98960.56
2024-01-15T12:55:15.216Z,98968.25
2024-01-15T12:57:42.393Z,98963.56
2024-01-15T13:00:14.714Z,98962.22
2024-01-15T13:02:45.355Z,98964.56
2024-01-15T13:05:14.127Z,98961.78
2024-01-15T13:07:42.318Z,98974.72
2024-01-15T13:10:10.676Z,98964.16
2024-01-15T13:12:38.986Z,98975.25
2024-01-15T13:15:06.214Z,98985.03
2024-01-15T13:17:33.260Z,98975.59
2024-01-15T13:20:00.672Z,98973.72
2024-01-15T13:22:33.547Z,98978.78
2024-01-15T13:25:01.349Z,98966.03
2024-01-15T13:27:28.616Z,98980.56
2024-01-15T13:29:55.783Z,98983.91
2024-01-15T13:32:29.306Z,98988.28
2024-01-15T13:34:57.883Z,98988.03
2024-01-15T13:37:26.059Z,98988.56
2024-01-15T13:39:54.342Z,98993.59
2024-01-15T13:42:24.922Z,98995.25
2024-01-15T13:44:52.617Z,99006.50
2024-01-15T13:47:19.708Z,99008.53
2024-01-15T13:49:47.474Z,99010.84
2024-01-15T13:52:14.457Z,99012.38
2024-01-15T13:54:49.102Z,99009.00
2024-01-15T13:57:21.425Z,99032.41
2024-01-15T13:59:50.759Z,99018.56
2024-01-15T14:02:20.644Z,99021.84
2024-01-15T14:04:49.481Z,99028.19
2024-01-15T14:07:17.016Z,99027.75
2024-01-15T14:09:43.956Z,99041.63
2024-01-15T14:12:10.731Z,99040.69
2024-01-15T14:14:37.461Z,99036.81
2024-01-15T14:17:05.221Z,99049.50
2024-01-15T14:19:32.166Z,99054.66
2024-01-15T14:21:59.654Z,99047.00
2024-01-15T14:24:26.474Z,99054.94
2024-01-15T14:26:53.251Z,99046.06
2024-01-15T14:29:22.005Z,99064.69
2024-01-15T14:31:48.837Z,99064.44
2024-01-15T14:34:15.716Z,99065.84
2024-01-15T14:36:42.656Z,99059.28
2024-01-15T14:39:10.924Z,99066.28
2024-01-15T14:41:37.762Z,99070.94
2024-01-15T14:44:04.809Z,99074.16
2024-01-15T14:46:31.617Z,99079.53
2024-01-15T14:48:58.548Z,99076.78
2024-01-15T14:51:25.460Z,99077.19
2024-01-15T14:53:52.716Z,99074.56
2024-01-15T14:56:19.442Z,99086.16
2024-01-15T14:58:46.159Z,99094.75
2024-01-15T15:01:16.541Z,99093.34
2024-01-15T15:03:43.627Z,99091.72
2024-01-15T15:06:10.496Z,99099.59
2024-01-15T15:08:37.993Z,99102.47
2024-01-15T15:11:05.549Z,99108.34
2024-01-15T15:13:38.544Z,99102.44
2024-01-15T15:16:12.215Z,99111.66
2024-01-15T15:18:39.453Z,99115.88
2024-01-15T15:21:06.443Z,99118.34
2024-01-15T15:23:33.251Z,99122.88
2024-01-15T15:26:00.035Z,99120.69
2024-01-15T15:28:26.819Z,99116.22
2024-01-15T15:30:53.953Z,99125.19
2024-01-15T15:33:20.893Z,99125.03
2024-01-15T15:35:49.216Z,99133.78
2024-01-15T15:38:15.983Z,99138.50
2024-01-15T15:40:42.860Z,99142.03
2024-01-15T15:43:09.887Z,99138.78
2024-01-15T15:45:37.128Z,99146.22
2024-01-15T15:48:04.400Z,99156.56
2024-01-15T15:50:34.388Z,99150.81
2024-01-15T15:53:02.812Z,99156.78
2024-01-15T15:55:30.576Z,99163.34
2024-01-15T15:57:57.944Z,99169.66
2024-01-15T16:00:24.921Z,99166.91
2024-01-15T16:02:51.732Z,99166.97
2024-01-15T16:05:18.558Z,99165.31
2024-01-15T16:07:45.303Z,99167.09
2024-01-15T16:10:13.221Z,99161.66
2024-01-15T16:12:40.876Z,99175.50
2024-01-15T16:15:23.874Z,99174.44
2024-01-15T16:23:17.445Z,99181.75
2024-01-15T16:23:31.562Z,99176.13
2024-01-15T16:24:04.059Z,99190.38
2024-01-15T16:26:12.063Z,99196.50
2024-01-15T16:28:39.145Z,99199.34
2024-01-15T16:31:08.780Z,99206.31
2024-01-15T16:33:37.343Z,99200.75
2024-01-15T16:36:04.366Z,99211.28
2024-01-15T16:38:31.216Z,99200.28
2024-01-15T16:40:58.087Z,99211.31
2024-01-15T16:43:24.947Z,99211.47
2024-01-15T16:45:51.658Z,99216.53
2024-01-15T16:48:18.545Z,99217.72
2024-01-15T16:50:45.378Z,99219.81
2024-01-15T16:53:12.217Z,99224.78
2024-01-15T16:55:39.031Z,99221.03
2024-01-15T16:58:05.780Z,99228.56
2024-01-15T17:00:32.525Z,99229.22
2024-01-15T17:02:59.514Z,99229.69
2024-01-15T17:05:26.895Z,99227.06
2024-01-15T17:07:53.704Z,99233.72
2024-01-15T17:10:20.469Z,99229.16
2024-01-15T17:12:48.740Z,99238.56
2024-01-15T17:15:15.580Z,99241.56
2024-01-15T17:17:42.727Z,99250.75
2024-01-15T17:20:10.148Z,99247.13
2024-01-15T17:22:37.832Z,99248.00
2024-01-15T17:25:06.657Z,99250.59
2024-01-15T17:27:33.427Z,99254.78
2024-01-15T17:30:00.645Z,99252.88
2024-01-15T17:32:27.508Z,99259.09
2024-01-15T17:34:54.686Z,99252.81
2024-01-15T17:37:21.453Z,99261.63
2024-01-15T17:39:48.617Z,99265.16
2024-01-15T17:42:15.344Z,99260.53
2024-01-15T17:44:42.884Z,99259.34
2024-01-15T17:47:09.677Z,99266.28
2024-01-15T17:49:36.413Z,99271.47
2024-01-15T17:52:03.858Z,99276.06
2024-01-15T17:54:32.170Z,99276.00
2024-01-15T17:56:59.087Z,99279.31
2024-01-15T17:59:26.078Z,99280.81
2024-01-15T18:01:53.267Z,99279.31
2024-01-15T18:04:21.058Z,99276.41
2024-01-15T18:06:51.074Z,99290.22
2024-01-15T18:09:18.583Z,99287.59
2024-01-15T18:11:45.683Z,99298.25
2024-01-15T18:14:13.633Z,99308.22
2024-01-15T18:16:40.596Z,99308.13
2024-01-15T18:19:07.436Z,99312.34
2024-01-15T18:21:34.715Z,99314.13
2024-01-15T18:24:01.478Z,99319.09
2024-01-15T18:26:29.355Z,99315.75
2024-01-15T18:28:56.433Z,99324.22
2024-01-15T18:31:23.217Z,99328.56
2024-01-15T18:33:50.116Z,99329.50
2024-01-15T18:36:16.968Z,99327.81
2024-01-15T18:38:44.086Z,99329.63
2024-01-15T18:41:20.709Z,99332.09
2024-01-15T18:43:47.463Z,99323.16
2024-01-15T18:46:14.156Z,99342.06
2024-01-15T18:48:41.022Z,99343.44
2024-01-15T18:51:07.811Z,99346.66
2024-01-15T18:53:34.596Z,99350.97
2024-01-15T18:56:05.070Z,99361.69
2024-01-15T18:58:32.496Z,99369.00
2024-01-15T19:01:00.197Z,99366.72
2024-01-15T19:03:26.926Z,99375.06
2024-01-15T19:05:53.690Z,99375.53
2024-01-15T19:08:21.248Z,99377.94
2024-01-15T19:10:48.015Z,99383.06
2024-01-15T19:13:18.205Z,99378.34
2024-01-15T19:15:45.992Z,99387.47
2024-01-15T19:18:13.084Z,99384.72
2024-01-15T19:20:40.024Z,99392.03
2024-01-15T19:23:07.198Z,99403.59
2024-01-15T19:25:33.903Z,99409.78
2024-01-15T19:28:00.636Z,99406.31
2024-01-15T19:30:27.424Z,99411.72
2024-01-15T19:32:54.291Z,99419.19
2024-01-15T19:35:21.234Z,99419.84
2024-01-15T19:37:49.029Z,99424.19
2024-01-15T19:40:16.473Z,99427.47
2024-01-15T19:42:43.757Z,99436.22
2024-01-15T19:45:10.448Z,99446.63
2024-01-15T19:47:37.265Z,99440.75
2024-01-15T19:50:04.249Z,99446.88
2024-01-15T19:52:31.094Z,99452.00
2024-01-15T19:54:57.804Z,99454.94
2024-01-15T19:57:24.640Z,99463.75
2024-01-15T19:59:54.797Z,99476.13
2024-01-15T20:02:21.989Z,99475.97
2024-01-15T20:04:48.775Z,99484.50
2024-01-15T20:07:15.507Z,99477.41
2024-01-15T20:09:42.524Z,99479.19
2024-01-15T20:12:10.585Z,99476.78
2024-01-15T20:14:37.581Z,99482.03
2024-01-15T20:17:05.744Z,99488.72
2024-01-15T20:19:32.772Z,99494.91
2024-01-15T20:22:00.223Z,99509.88
2024-01-15T20:24:27.520Z,99516.91
2024-01-15T20:26:54.301Z,99511.91
2024-01-15T20:29:21.109Z,99523.22
2024-01-15T20:31:48.492Z,99530.00
2024-01-15T20:34:15.337Z,99526.38
2024-01-15T20:36:42.083Z,99535.28
2024-01-15T20:39:10.674Z,99536.69
2024-01-15T20:41:37.881Z,99537.97
2024-01-15T20:44:04.991Z,99543.00
2024-01-15T20:46:31.790Z,99544.16
2024-01-15T20:48:58.565Z,99540.53
2024-01-15T20:51:25.300Z,99543.75
2024-01-15T20:53:52.081Z,99548.13
2024-01-15T20:56:19.517Z,99549.00
2024-01-15T20:58:46.255Z,99554.38
2024-01-15T21:01:13.020Z,99569.34
2024-01-15T21:03:39.981Z,99569.34
2024-01-15T21:06:07.086Z,99580.16
2024-01-15T21:08:35.516Z,99573.84
2024-01-15T21:11:05.201Z,99581.50
2024-01-15T21:13:32.261Z,99582.31
2024-01-15T21:15:58.978Z,99576.22
2024-01-15T21:18:25.814Z,99567.41
2024-01-15T21:20:52.552Z,99576.16
2024-01-15T21:23:19.307Z,99579.56
2024-01-15T21:25:46.077Z,99584.78
2024-01-15T21:28:12.831Z,99587.66
2024-01-15T21:30:39.675Z,99591.88
2024-01-15T21:33:06.717Z,99599.00
2024-01-15T21:35:33.799Z,99597.56
2024-01-15T21:38:00.949Z,99596.63
2024-01-15T21:40:27.746Z,99602.47
2024-01-15T21:42:55.597Z,99598.88
2024-01-15T21:45:22.534Z,99604.97
2024-01-15T21:47:49.430Z,99602.19
2024-01-15T21:50:16.807Z,99611.78
2024-01-15T21:52:43.546Z,99625.75
2024-01-15T21:55:11.198Z,99619.47
2024-01-15T21:57:37.980Z,99617.88
2024-01-15T22:00:07.903Z,99630.00
2024-01-15T22:02:41.625Z,99630.91
2024-01-15T22:05:09.829Z,99623.16
2024-01-15T22:07:39.197Z,99618.84
2024-01-15T22:10:08.640Z,99622.44
2024-01-15T22:12:35.448Z,99627.84
2024-01-15T22:15:02.411Z,99624.22
2024-01-15T22:17:30.222Z,99633.91
2024-01-15T22:19:56.992Z,99625.88
2024-01-15T22:22:23.796Z,99628.56
2024-01-15T22:24:50.525Z,99634.81
2024-01-15T22:27:18.035Z,99633.06
2024-01-15T22:29:44.834Z,99630.25
2024-01-15T22:32:11.689Z,99632.84
2024-01-15T22:34:38.899Z,99631.97
2024-01-15T22:37:06.077Z,99638.94
2024-01-15T22:39:32.882Z,99640.72
2024-01-15T22:42:00.458Z,99637.25
2024-01-15T22:44:27.395Z,99638.06
2024-01-15T22:46:54.324Z,99636.28
2024-01-15T22:49:21.146Z,99638.91
2024-01-15T22:51:48.193Z,99638.00
2024-01-15T22:54:14.894Z,99650.28
2024-01-15T22:56:41.731Z,99652.03
2024-01-15T22:59:08.531Z,99649.66
2024-01-15T23:01:35.388Z,99658.53
2024-01-15T23:04:02.174Z,99648.75
2024-01-15T23:06:28.887Z,99649.69
2024-01-15T23:08:56.688Z,99651.50
2024-01-15T23:11:24.677Z,99657.59
2024-01-15T23:13:51.469Z,99655.84
2024-01-15T23:16:18.596Z,99646.19
2024-01-15T23:18:45.696Z,99645.25
2024-01-15T23:21:12.660Z,99641.81
2024-01-15T23:23:40.023Z,99652.31
2024-01-15T23:26:07.144Z,99654.06
2024-01-15T23:28:33.966Z,99658.41
2024-01-15T23:31:02.115Z,99658.50
2024-01-15T23:33:29.521Z,99659.38
2024-01-15T23:35:57.443Z,99675.97
2024-01-15T23:38:24.486Z,99682.19
2024-01-15T23:40:51.884Z,99680.38
2024-01-15T23:43:18.821Z,99679.44
2024-01-15T23:45:47.823Z,99679.53
2024-01-15T23:48:15.922Z,99682.13
2024-01-15T23:50:42.931Z,99682.06
2024-01-15T23:53:10.018Z,99684.28
2024-01-15T23:55:36.779Z,99685.81
2024-01-15T23:58:04.311Z,99686.22
